sensor_id;sensor_type;location;lat;lon;timestamp;temperature;humidity
66343;DHT22;53144;51.524;5.080;2023-01-30T00:00:56;4.75;93.80
66343;DHT22;53144;51.524;5.080;2023-01-30T00:03:22;4.78;93.89
66343;DHT22;53144;51.524;5.080;2023-01-30T00:05:48;4.81;93.94
66343;DHT22;53144;51.524;5.080;2023-01-30T00:08:14;4.85;93.93
66343;DHT22;53144;51.524;5.080;2023-01-30T00:10:40;4.88;93.72
66343;DHT22;53144;51.524;5.080;2023-01-30T00:13:05;4.91;93.94
66343;DHT22;53144;51.524;5.080;2023-01-30T00:15:31;4.92;93.99
66343;DHT22;53144;51.524;5.080;2023-01-30T00:17:56;4.96;93.89
66343;DHT22;53144;51.524;5.080;2023-01-30T00:20:22;5.05;93.85
66343;DHT22;53144;51.524;5.080;2023-01-30T00:22:47;5.03;93.95
66343;DHT22;53144;51.524;5.080;2023-01-30T00:25:12;5.03;93.96
66343;DHT22;53144;51.524;5.080;2023-01-30T00:27:38;5.08;94.05
66343;DHT22;53144;51.524;5.080;2023-01-30T00:30:03;5.11;94.06
66343;DHT22;53144;51.524;5.080;2023-01-30T00:32:31;5.13;94.00
66343;DHT22;53144;51.524;5.080;2023-01-30T00:34:57;5.15;94.05
66343;DHT22;53144;51.524;5.080;2023-01-30T00:37:22;5.18;93.99
66343;DHT22;53144;51.524;5.080;2023-01-30T00:39:47;5.23;94.08
66343;DHT22;53144;51.524;5.080;2023-01-30T00:42:13;5.27;94.09
66343;DHT22;53144;51.524;5.080;2023-01-30T00:44:57;5.30;94.04
66343;DHT22;53144;51.524;5.080;2023-01-30T00:47:41;5.34;93.91
66343;DHT22;53144;51.524;5.080;2023-01-30T00:50:07;5.39;93.88
66343;DHT22;53144;51.524;5.080;2023-01-30T00:52:32;5.40;94.02
66343;DHT22;53144;51.524;5.080;2023-01-30T00:54:57;5.46;93.89
66343;DHT22;53144;51.524;5.080;2023-01-30T00:57:23;5.47;94.00
66343;DHT22;53144;51.524;5.080;2023-01-30T00:59:48;5.50;93.88
66343;DHT22;53144;51.524;5.080;2023-01-30T01:02:14;5.44;94.08
66343;DHT22;53144;51.524;5.080;2023-01-30T01:04:39;5.53;94.04
66343;DHT22;53144;51.524;5.080;2023-01-30T01:07:14;5.54;94.15
66343;DHT22;53144;51.524;5.080;2023-01-30T01:09:39;5.64;93.91
66343;DHT22;53144;51.524;5.080;2023-01-30T01:12:05;5.67;93.91
66343;DHT22;53144;51.524;5.080;2023-01-30T01:14:31;5.77;93.84
66343;DHT22;53144;51.524;5.080;2023-01-30T01:16:57;5.79;93.77
66343;DHT22;53144;51.524;5.080;2023-01-30T01:19:23;5.82;93.68
66343;DHT22;53144;51.524;5.080;2023-01-30T01:21:48;5.88;93.79
66343;DHT22;53144;51.524;5.080;2023-01-30T01:24:15;5.91;93.72
66343;DHT22;53144;51.524;5.080;2023-01-30T01:26:42;5.98;93.64
66343;DHT22;53144;51.524;5.080;2023-01-30T01:29:13;5.98;93.74
66343;DHT22;53144;51.524;5.080;2023-01-30T01:31:38;6.01;93.65
66343;DHT22;53144;51.524;5.080;2023-01-30T01:34:04;5.98;93.78
66343;DHT22;53144;51.524;5.080;2023-01-30T01:36:29;6.01;93.78
66343;DHT22;53144;51.524;5.080;2023-01-30T01:38:54;6.08;93.78
66343;DHT22;53144;51.524;5.080;2023-01-30T01:41:20;6.15;93.89
66343;DHT22;53144;51.524;5.080;2023-01-30T01:44:10;6.22;93.71
66343;DHT22;53144;51.524;5.080;2023-01-30T01:46:46;6.22;93.64
66343;DHT22;53144;51.524;5.080;2023-01-30T01:49:16;6.25;93.66
66343;DHT22;53144;51.524;5.080;2023-01-30T01:51:52;6.30;93.62
66343;DHT22;53144;51.524;5.080;2023-01-30T01:57:04;6.34;93.60
66343;DHT22;53144;51.524;5.080;2023-01-30T01:59:37;6.52;93.35
66343;DHT22;53144;51.524;5.080;2023-01-30T02:02:07;6.56;93.25
66343;DHT22;53144;51.524;5.080;2023-01-30T02:04:33;6.60;93.06
66343;DHT22;53144;51.524;5.080;2023-01-30T02:07:19;6.62;93.10
66343;DHT22;53144;51.524;5.080;2023-01-30T02:09:46;6.62;93.17
66343;DHT22;53144;51.524;5.080;2023-01-30T02:12:13;6.64;93.05
66343;DHT22;53144;51.524;5.080;2023-01-30T02:14:39;6.70;93.06
66343;DHT22;53144;51.524;5.080;2023-01-30T02:17:04;6.71;92.96
66343;DHT22;53144;51.524;5.080;2023-01-30T02:20:03;6.76;92.92
66343;DHT22;53144;51.524;5.080;2023-01-30T02:39:29;6.83;92.93
66343;DHT22;53144;51.524;5.080;2023-01-30T02:42:22;6.77;93.16
66343;DHT22;53144;51.524;5.080;2023-01-30T02:45:15;6.77;93.13
66343;DHT22;53144;51.524;5.080;2023-01-30T02:47:46;6.81;93.01
66343;DHT22;53144;51.524;5.080;2023-01-30T02:50:20;6.85;92.92
66343;DHT22;53144;51.524;5.080;2023-01-30T02:52:47;6.85;92.84
66343;DHT22;53144;51.524;5.080;2023-01-30T02:55:26;6.85;92.84
66343;DHT22;53144;51.524;5.080;2023-01-30T02:57:53;6.91;92.65
66343;DHT22;53144;51.524;5.080;2023-01-30T03:03:33;6.94;92.57
66343;DHT22;53144;51.524;5.080;2023-01-30T03:09:21;6.79;93.92
66343;DHT22;53144;51.524;5.080;2023-01-30T03:12:01;6.69;94.58
66343;DHT22;53144;51.524;5.080;2023-01-30T03:14:35;6.67;95.08
66343;DHT22;53144;51.524;5.080;2023-01-30T03:17:03;6.69;95.41
66343;DHT22;53144;51.524;5.080;2023-01-30T03:19:30;6.64;95.80
66343;DHT22;53144;51.524;5.080;2023-01-30T03:21:56;6.58;96.28
66343;DHT22;53144;51.524;5.080;2023-01-30T03:24:21;6.58;96.40
66343;DHT22;53144;51.524;5.080;2023-01-30T03:26:51;6.52;96.65
66343;DHT22;53144;51.524;5.080;2023-01-30T03:29:18;6.54;96.64
66343;DHT22;53144;51.524;5.080;2023-01-30T03:31:43;6.54;96.77
66343;DHT22;53144;51.524;5.080;2023-01-30T03:34:09;6.53;96.80
66343;DHT22;53144;51.524;5.080;2023-01-30T03:36:34;6.53;96.83
66343;DHT22;53144;51.524;5.080;2023-01-30T03:38:59;6.53;96.79
66343;DHT22;53144;51.524;5.080;2023-01-30T03:41:25;6.57;96.87
66343;DHT22;53144;51.524;5.080;2023-01-30T03:43:50;6.56;96.89
66343;DHT22;53144;51.524;5.080;2023-01-30T03:46:15;6.54;96.94
66343;DHT22;53144;51.524;5.080;2023-01-30T03:48:41;6.58;96.93
66343;DHT22;53144;51.524;5.080;2023-01-30T03:51:06;6.57;97.12
66343;DHT22;53144;51.524;5.080;2023-01-30T03:53:32;6.54;97.15
66343;DHT22;53144;51.524;5.080;2023-01-30T03:55:57;6.58;97.10
66343;DHT22;53144;51.524;5.080;2023-01-30T03:58:22;6.58;97.21
66343;DHT22;53144;51.524;5.080;2023-01-30T04:00:48;6.56;97.23
66343;DHT22;53144;51.524;5.080;2023-01-30T04:03:13;6.56;97.22
66343;DHT22;53144;51.524;5.080;2023-01-30T04:05:41;6.63;96.92
66343;DHT22;53144;51.524;5.080;2023-01-30T04:08:07;6.67;96.76
66343;DHT22;53144;51.524;5.080;2023-01-30T04:10:32;6.67;96.72
66343;DHT22;53144;51.524;5.080;2023-01-30T04:12:58;6.66;96.71
66343;DHT22;53144;51.524;5.080;2023-01-30T04:15:23;6.69;96.68
66343;DHT22;53144;51.524;5.080;2023-01-30T04:17:48;6.69;96.60
66343;DHT22;53144;51.524;5.080;2023-01-30T04:20:14;6.69;96.55
66343;DHT22;53144;51.524;5.080;2023-01-30T04:22:40;6.71;96.36
66343;DHT22;53144;51.524;5.080;2023-01-30T04:25:05;6.77;96.11
66343;DHT22;53144;51.524;5.080;2023-01-30T04:27:30;6.76;96.24
66343;DHT22;53144;51.524;5.080;2023-01-30T04:29:56;6.77;96.15
66343;DHT22;53144;51.524;5.080;2023-01-30T04:32:21;6.76;96.11
66343;DHT22;53144;51.524;5.080;2023-01-30T04:34:47;6.85;95.67
66343;DHT22;53144;51.524;5.080;2023-01-30T04:37:12;6.90;95.74
66343;DHT22;53144;51.524;5.080;2023-01-30T04:39:37;6.91;95.50
66343;DHT22;53144;51.524;5.080;2023-01-30T04:42:03;6.88;95.54
66343;DHT22;53144;51.524;5.080;2023-01-30T04:44:28;6.87;95.53
66343;DHT22;53144;51.524;5.080;2023-01-30T04:46:54;6.91;95.46
66343;DHT22;53144;51.524;5.080;2023-01-30T04:49:19;6.95;95.19
66343;DHT22;53144;51.524;5.080;2023-01-30T04:51:45;6.97;95.16
66343;DHT22;53144;51.524;5.080;2023-01-30T04:54:10;7.00;95.03
66343;DHT22;53144;51.524;5.080;2023-01-30T04:56:35;7.00;94.99
66343;DHT22;53144;51.524;5.080;2023-01-30T04:59:01;7.08;94.72
66343;DHT22;53144;51.524;5.080;2023-01-30T05:01:35;7.07;94.68
66343;DHT22;53144;51.524;5.080;2023-01-30T05:04:01;7.14;94.47
66343;DHT22;53144;51.524;5.080;2023-01-30T05:06:27;7.18;94.17
66343;DHT22;53144;51.524;5.080;2023-01-30T05:08:54;7.25;93.74
66343;DHT22;53144;51.524;5.080;2023-01-30T05:11:21;7.28;93.43
66343;DHT22;53144;51.524;5.080;2023-01-30T05:13:47;7.31;93.26
66343;DHT22;53144;51.524;5.080;2023-01-30T05:16:14;7.32;92.98
66343;DHT22;53144;51.524;5.080;2023-01-30T05:18:39;7.28;93.48
66343;DHT22;53144;51.524;5.080;2023-01-30T05:21:10;7.31;93.31
66343;DHT22;53144;51.524;5.080;2023-01-30T05:23:35;7.31;93.34
66343;DHT22;53144;51.524;5.080;2023-01-30T05:26:01;7.31;93.24
66343;DHT22;53144;51.524;5.080;2023-01-30T05:28:27;7.32;93.40
66343;DHT22;53144;51.524;5.080;2023-01-30T05:30:53;7.28;93.52
66343;DHT22;53144;51.524;5.080;2023-01-30T05:33:19;7.28;93.43
66343;DHT22;53144;51.524;5.080;2023-01-30T05:35:46;7.23;93.61
66343;DHT22;53144;51.524;5.080;2023-01-30T05:38:11;7.26;93.65
66343;DHT22;53144;51.524;5.080;2023-01-30T05:40:36;7.28;93.77
66343;DHT22;53144;51.524;5.080;2023-01-30T05:43:02;7.19;94.11
66343;DHT22;53144;51.524;5.080;2023-01-30T05:45:27;7.22;93.92
66343;DHT22;53144;51.524;5.080;2023-01-30T05:47:52;7.22;93.85
66343;DHT22;53144;51.524;5.080;2023-01-30T05:50:18;7.23;93.58
66343;DHT22;53144;51.524;5.080;2023-01-30T05:52:43;7.26;93.60
66343;DHT22;53144;51.524;5.080;2023-01-30T05:55:09;7.29;93.04
66343;DHT22;53144;51.524;5.080;2023-01-30T05:57:34;7.33;92.70
66343;DHT22;53144;51.524;5.080;2023-01-30T05:59:59;7.35;92.70
66343;DHT22;53144;51.524;5.080;2023-01-30T06:02:25;7.45;92.17
66343;DHT22;53144;51.524;5.080;2023-01-30T06:04:50;7.43;91.92
66343;DHT22;53144;51.524;5.080;2023-01-30T06:07:15;7.39;91.87
66343;DHT22;53144;51.524;5.080;2023-01-30T06:09:41;7.41;91.69
66343;DHT22;53144;51.524;5.080;2023-01-30T06:12:06;7.45;91.51
66343;DHT22;53144;51.524;5.080;2023-01-30T06:14:32;7.52;91.19
66343;DHT22;53144;51.524;5.080;2023-01-30T06:16:57;7.52;91.00
66343;DHT22;53144;51.524;5.080;2023-01-30T06:19:22;7.48;91.36
66343;DHT22;53144;51.524;5.080;2023-01-30T06:21:48;7.46;91.12
66343;DHT22;53144;51.524;5.080;2023-01-30T06:24:13;7.48;90.55
66343;DHT22;53144;51.524;5.080;2023-01-30T06:26:38;7.48;90.33
66343;DHT22;53144;51.524;5.080;2023-01-30T06:29:04;7.46;90.17
66343;DHT22;53144;51.524;5.080;2023-01-30T06:31:29;7.31;90.53
66343;DHT22;53144;51.524;5.080;2023-01-30T06:33:54;7.32;90.03
66343;DHT22;53144;51.524;5.080;2023-01-30T06:36:20;7.23;90.28
66343;DHT22;53144;51.524;5.080;2023-01-30T06:38:45;7.12;89.85
66343;DHT22;53144;51.524;5.080;2023-01-30T06:41:10;7.15;89.01
66343;DHT22;53144;51.524;5.080;2023-01-30T06:43:36;7.14;88.55
66343;DHT22;53144;51.524;5.080;2023-01-30T06:46:01;7.11;87.67
66343;DHT22;53144;51.524;5.080;2023-01-30T06:48:27;7.00;87.98
66343;DHT22;53144;51.524;5.080;2023-01-30T06:50:52;6.95;88.16
66343;DHT22;53144;51.524;5.080;2023-01-30T06:53:17;6.77;88.54
66343;DHT22;53144;51.524;5.080;2023-01-30T06:55:43;6.67;88.98
66343;DHT22;53144;51.524;5.080;2023-01-30T06:58:12;6.71;88.67
66343;DHT22;53144;51.524;5.080;2023-01-30T07:00:39;6.70;88.87
66343;DHT22;53144;51.524;5.080;2023-01-30T07:03:09;6.58;88.92
66343;DHT22;53144;51.524;5.080;2023-01-30T07:05:39;6.50;89.38
66343;DHT22;53144;51.524;5.080;2023-01-30T07:08:05;6.47;89.38
66343;DHT22;53144;51.524;5.080;2023-01-30T07:10:31;6.46;88.99
66343;DHT22;53144;51.524;5.080;2023-01-30T07:12:57;6.40;88.97
66343;DHT22;53144;51.524;5.080;2023-01-30T07:15:22;6.43;88.27
66343;DHT22;53144;51.524;5.080;2023-01-30T07:17:48;6.54;87.33
66343;DHT22;53144;51.524;5.080;2023-01-30T07:20:14;6.39;87.88
66343;DHT22;53144;51.524;5.080;2023-01-30T07:22:39;6.29;88.03
66343;DHT22;53144;51.524;5.080;2023-01-30T07:25:05;6.22;87.85
66343;DHT22;53144;51.524;5.080;2023-01-30T07:27:31;6.26;87.54
66343;DHT22;53144;51.524;5.080;2023-01-30T07:29:56;6.21;87.31
66343;DHT22;53144;51.524;5.080;2023-01-30T07:32:21;6.30;86.38
66343;DHT22;53144;51.524;5.080;2023-01-30T07:34:47;6.18;86.95
66343;DHT22;53144;51.524;5.080;2023-01-30T07:37:13;6.02;87.34
66343;DHT22;53144;51.524;5.080;2023-01-30T07:39:39;6.04;87.16
66343;DHT22;53144;51.524;5.080;2023-01-30T07:42:04;6.02;86.93
66343;DHT22;53144;51.524;5.080;2023-01-30T07:44:30;5.95;87.19
66343;DHT22;53144;51.524;5.080;2023-01-30T07:46:55;5.99;86.85
66343;DHT22;53144;51.524;5.080;2023-01-30T07:49:21;6.02;87.01
66343;DHT22;53144;51.524;5.080;2023-01-30T07:51:46;5.95;86.90
66343;DHT22;53144;51.524;5.080;2023-01-30T07:54:11;5.92;87.12
66343;DHT22;53144;51.524;5.080;2023-01-30T07:56:37;5.91;87.04
66343;DHT22;53144;51.524;5.080;2023-01-30T07:59:02;5.92;86.88
66343;DHT22;53144;51.524;5.080;2023-01-30T08:01:30;5.94;86.96
66343;DHT22;53144;51.524;5.080;2023-01-30T08:03:56;5.90;86.97
66343;DHT22;53144;51.524;5.080;2023-01-30T08:06:22;5.87;86.88
66343;DHT22;53144;51.524;5.080;2023-01-30T08:08:47;5.85;86.60
66343;DHT22;53144;51.524;5.080;2023-01-30T08:11:13;5.85;86.41
66343;DHT22;53144;51.524;5.080;2023-01-30T08:13:38;5.92;85.81
66343;DHT22;53144;51.524;5.080;2023-01-30T08:16:05;5.85;86.28
66343;DHT22;53144;51.524;5.080;2023-01-30T08:18:32;5.87;86.08
66343;DHT22;53144;51.524;5.080;2023-01-30T08:21:02;5.87;85.57
66343;DHT22;53144;51.524;5.080;2023-01-30T08:23:27;5.92;85.44
66343;DHT22;53144;51.524;5.080;2023-01-30T08:25:57;6.18;84.04
66343;DHT22;53144;51.524;5.080;2023-01-30T08:28:23;6.12;84.43
66343;DHT22;53144;51.524;5.080;2023-01-30T08:30:51;6.26;83.57
66343;DHT22;53144;51.524;5.080;2023-01-30T08:33:18;6.26;83.89
66343;DHT22;53144;51.524;5.080;2023-01-30T08:35:44;6.26;83.95
66343;DHT22;53144;51.524;5.080;2023-01-30T08:38:10;6.28;83.82
66343;DHT22;53144;51.524;5.080;2023-01-30T08:40:36;6.40;83.04
66343;DHT22;53144;51.524;5.080;2023-01-30T08:43:02;6.39;83.56
66343;DHT22;53144;51.524;5.080;2023-01-30T08:45:31;6.44;83.54
66343;DHT22;53144;51.524;5.080;2023-01-30T08:47:58;6.43;83.67
66343;DHT22;53144;51.524;5.080;2023-01-30T08:50:23;6.46;83.61
66343;DHT22;53144;51.524;5.080;2023-01-30T08:52:49;6.56;83.29
66343;DHT22;53144;51.524;5.080;2023-01-30T08:55:14;6.54;83.68
66343;DHT22;53144;51.524;5.080;2023-01-30T08:57:40;6.67;82.95
66343;DHT22;53144;51.524;5.080;2023-01-30T09:00:06;6.73;83.30
66343;DHT22;53144;51.524;5.080;2023-01-30T09:02:34;6.77;82.68
66343;DHT22;53144;51.524;5.080;2023-01-30T09:04:59;6.77;83.29
66343;DHT22;53144;51.524;5.080;2023-01-30T09:07:25;6.88;82.44
66343;DHT22;53144;51.524;5.080;2023-01-30T09:09:53;6.97;82.21
66343;DHT22;53144;51.524;5.080;2023-01-30T09:12:21;7.00;82.55
66343;DHT22;53144;51.524;5.080;2023-01-30T09:14:47;7.01;82.23
66343;DHT22;53144;51.524;5.080;2023-01-30T09:17:12;7.01;82.35
66343;DHT22;53144;51.524;5.080;2023-01-30T09:19:37;7.09;81.68
66343;DHT22;53144;51.524;5.080;2023-01-30T09:22:03;7.14;81.75
66343;DHT22;53144;51.524;5.080;2023-01-30T09:24:29;7.25;81.40
66343;DHT22;53144;51.524;5.080;2023-01-30T09:26:56;7.29;81.27
66343;DHT22;53144;51.524;5.080;2023-01-30T09:29:29;7.38;81.18
66343;DHT22;53144;51.524;5.080;2023-01-30T09:31:55;7.50;80.33
66343;DHT22;53144;51.524;5.080;2023-01-30T09:34:25;7.73;79.96
66343;DHT22;53144;51.524;5.080;2023-01-30T09:36:54;7.95;79.42
66343;DHT22;53144;51.524;5.080;2023-01-30T09:39:19;7.95;78.56
66343;DHT22;53144;51.524;5.080;2023-01-30T09:47:05;8.04;78.22
66343;DHT22;53144;51.524;5.080;2023-01-30T09:50:05;7.98;77.74
66343;DHT22;53144;51.524;5.080;2023-01-30T09:55:22;8.05;77.79
66343;DHT22;53144;51.524;5.080;2023-01-30T09:57:49;7.84;78.07
66343;DHT22;53144;51.524;5.080;2023-01-30T10:03:32;8.01;77.05
66343;DHT22;53144;51.524;5.080;2023-01-30T10:10:47;7.94;77.60
66343;DHT22;53144;51.524;5.080;2023-01-30T10:13:51;7.86;77.42
66343;DHT22;53144;51.524;5.080;2023-01-30T10:16:30;7.87;76.62
66343;DHT22;53144;51.524;5.080;2023-01-30T10:19:01;7.89;77.58
66343;DHT22;53144;51.524;5.080;2023-01-30T10:21:46;7.89;77.50
66343;DHT22;53144;51.524;5.080;2023-01-30T10:24:26;7.97;77.52
66343;DHT22;53144;51.524;5.080;2023-01-30T10:26:54;8.01;77.45
66343;DHT22;53144;51.524;5.080;2023-01-30T10:29:29;8.10;77.38
66343;DHT22;53144;51.524;5.080;2023-01-30T10:32:12;8.12;76.46
66343;DHT22;53144;51.524;5.080;2023-01-30T10:34:50;8.12;76.55
66343;DHT22;53144;51.524;5.080;2023-01-30T10:37:32;8.02;75.86
66343;DHT22;53144;51.524;5.080;2023-01-30T10:45:14;7.94;76.44
66343;DHT22;53144;51.524;5.080;2023-01-30T10:47:48;7.91;75.83
66343;DHT22;53144;51.524;5.080;2023-01-30T10:50:24;7.89;75.90
66343;DHT22;53144;51.524;5.080;2023-01-30T10:53:11;7.87;76.15
66343;DHT22;53144;51.524;5.080;2023-01-30T10:55:47;7.87;76.52
66343;DHT22;53144;51.524;5.080;2023-01-30T11:01:38;7.81;76.27
66343;DHT22;53144;51.524;5.080;2023-01-30T11:04:57;7.87;76.74
66343;DHT22;53144;51.524;5.080;2023-01-30T11:07:15;7.86;77.02
66343;DHT22;53144;51.524;5.080;2023-01-30T11:09:43;7.89;76.05
66343;DHT22;53144;51.524;5.080;2023-01-30T11:12:09;7.93;76.45
66343;DHT22;53144;51.524;5.080;2023-01-30T11:14:58;7.98;76.24
66343;DHT22;53144;51.524;5.080;2023-01-30T11:17:33;8.00;76.60
66343;DHT22;53144;51.524;5.080;2023-01-30T11:22:35;7.95;75.87
66343;DHT22;53144;51.524;5.080;2023-01-30T11:25:10;8.02;76.08
66343;DHT22;53144;51.524;5.080;2023-01-30T11:27:41;8.05;75.95
66343;DHT22;53144;51.524;5.080;2023-01-30T11:32:37;8.10;75.97
66343;DHT22;53144;51.524;5.080;2023-01-30T11:35:16;8.04;75.12
66343;DHT22;53144;51.524;5.080;2023-01-30T11:37:44;8.07;75.25
66343;DHT22;53144;51.524;5.080;2023-01-30T11:42:43;8.00;75.16
66343;DHT22;53144;51.524;5.080;2023-01-30T11:45:10;7.91;75.01
66343;DHT22;53144;51.524;5.080;2023-01-30T11:47:36;7.90;75.38
66343;DHT22;53144;51.524;5.080;2023-01-30T11:50:02;7.91;75.75
66343;DHT22;53144;51.524;5.080;2023-01-30T11:52:30;7.91;75.67
66343;DHT22;53144;51.524;5.080;2023-01-30T11:55:02;7.93;75.94
66343;DHT22;53144;51.524;5.080;2023-01-30T11:57:59;7.93;75.62
66343;DHT22;53144;51.524;5.080;2023-01-30T12:00:35;7.95;75.20
66343;DHT22;53144;51.524;5.080;2023-01-30T12:03:04;7.98;75.60
66343;DHT22;53144;51.524;5.080;2023-01-30T12:05:32;8.01;75.63
66343;DHT22;53144;51.524;5.080;2023-01-30T12:10:43;8.00;74.74
66343;DHT22;53144;51.524;5.080;2023-01-30T12:13:22;7.95;74.52
66343;DHT22;53144;51.524;5.080;2023-01-30T12:15:56;8.01;74.95
66343;DHT22;53144;51.524;5.080;2023-01-30T12:18:33;8.08;75.06
66343;DHT22;53144;51.524;5.080;2023-01-30T12:21:25;8.10;75.11
66343;DHT22;53144;51.524;5.080;2023-01-30T12:26:28;8.08;74.60
66343;DHT22;53144;51.524;5.080;2023-01-30T12:29:01;8.04;74.73
66343;DHT22;53144;51.524;5.080;2023-01-30T12:31:42;8.04;74.97
66343;DHT22;53144;51.524;5.080;2023-01-30T12:34:09;8.11;74.71
66343;DHT22;53144;51.524;5.080;2023-01-30T12:36:46;8.00;74.50
66343;DHT22;53144;51.524;5.080;2023-01-30T12:39:53;8.05;74.71
66343;DHT22;53144;51.524;5.080;2023-01-30T12:43:05;8.11;75.21
66343;DHT22;53144;51.524;5.080;2023-01-30T12:48:33;8.18;74.35
66343;DHT22;53144;51.524;5.080;2023-01-30T12:51:04;8.21;73.67
66343;DHT22;53144;51.524;5.080;2023-01-30T13:08:54;8.17;74.17
66343;DHT22;53144;51.524;5.080;2023-01-30T13:11:07;8.15;73.71
66343;DHT22;53144;51.524;5.080;2023-01-30T13:16:35;8.20;73.58
66343;DHT22;53144;51.524;5.080;2023-01-30T13:19:11;8.21;73.47
66343;DHT22;53144;51.524;5.080;2023-01-30T13:21:45;8.12;73.31
66343;DHT22;53144;51.524;5.080;2023-01-30T13:24:41;8.12;73.56
66343;DHT22;53144;51.524;5.080;2023-01-30T13:27:15;8.18;73.77
66343;DHT22;53144;51.524;5.080;2023-01-30T13:29:42;8.17;73.97
66343;DHT22;53144;51.524;5.080;2023-01-30T13:32:36;8.28;74.17
66343;DHT22;53144;51.524;5.080;2023-01-30T13:35:06;8.27;74.46
66343;DHT22;53144;51.524;5.080;2023-01-30T13:37:38;8.38;74.25
66343;DHT22;53144;51.524;5.080;2023-01-30T13:45:41;8.69;72.47
66343;DHT22;53144;51.524;5.080;2023-01-30T13:51:21;8.59;72.38
66343;DHT22;53144;51.524;5.080;2023-01-30T13:56:56;8.44;71.73
66343;DHT22;53144;51.524;5.080;2023-01-30T14:09:34;8.31;73.22
66343;DHT22;53144;51.524;5.080;2023-01-30T14:12:00;8.25;73.85
66343;DHT22;53144;51.524;5.080;2023-01-30T14:14:33;8.32;73.98
66343;DHT22;53144;51.524;5.080;2023-01-30T14:17:16;8.22;73.69
66343;DHT22;53144;51.524;5.080;2023-01-30T14:19:54;8.22;74.05
66343;DHT22;53144;51.524;5.080;2023-01-30T14:22:57;8.14;74.12
66343;DHT22;53144;51.524;5.080;2023-01-30T14:38:23;7.98;75.07
66343;DHT22;53144;51.524;5.080;2023-01-30T14:46:02;7.95;75.49
66343;DHT22;53144;51.524;5.080;2023-01-30T14:51:41;7.93;75.74
66343;DHT22;53144;51.524;5.080;2023-01-30T14:57:00;7.93;75.93
66343;DHT22;53144;51.524;5.080;2023-01-30T14:59:47;7.93;75.92
66343;DHT22;53144;51.524;5.080;2023-01-30T15:10:37;7.89;76.10
66343;DHT22;53144;51.524;5.080;2023-01-30T15:21:46;7.80;76.78
66343;DHT22;53144;51.524;5.080;2023-01-30T15:27:14;7.77;77.10
66343;DHT22;53144;51.524;5.080;2023-01-30T15:32:27;7.76;77.02
66343;DHT22;53144;51.524;5.080;2023-01-30T15:37:39;7.74;77.47
66343;DHT22;53144;51.524;5.080;2023-01-30T15:46:31;7.73;77.71
66343;DHT22;53144;51.524;5.080;2023-01-30T15:51:33;7.62;78.09
66343;DHT22;53144;51.524;5.080;2023-01-30T15:54:01;7.66;78.22
66343;DHT22;53144;51.524;5.080;2023-01-30T15:56:29;7.62;78.40
66343;DHT22;53144;51.524;5.080;2023-01-30T15:58:57;7.66;78.37
66343;DHT22;53144;51.524;5.080;2023-01-30T16:01:24;7.60;78.57
66343;DHT22;53144;51.524;5.080;2023-01-30T16:03:50;7.60;78.69
66343;DHT22;53144;51.524;5.080;2023-01-30T16:09:00;7.55;79.17
66343;DHT22;53144;51.524;5.080;2023-01-30T16:11:39;7.59;79.02
66343;DHT22;53144;51.524;5.080;2023-01-30T16:14:10;7.52;79.35
66343;DHT22;53144;51.524;5.080;2023-01-30T16:16:37;7.55;79.12
66343;DHT22;53144;51.524;5.080;2023-01-30T16:19:05;7.50;79.10
66343;DHT22;53144;51.524;5.080;2023-01-30T16:21:33;7.52;79.34
66343;DHT22;53144;51.524;5.080;2023-01-30T16:24:13;7.43;79.29
66343;DHT22;53144;51.524;5.080;2023-01-30T16:26:45;7.43;79.29
66343;DHT22;53144;51.524;5.080;2023-01-30T16:29:23;7.35;79.82
66343;DHT22;53144;51.524;5.080;2023-01-30T16:31:50;7.38;79.60
66343;DHT22;53144;51.524;5.080;2023-01-30T16:34:34;7.36;79.68
66343;DHT22;53144;51.524;5.080;2023-01-30T16:37:22;7.36;79.87
66343;DHT22;53144;51.524;5.080;2023-01-30T16:43:18;7.32;80.09
66343;DHT22;53144;51.524;5.080;2023-01-30T16:50:45;7.33;80.28
66343;DHT22;53144;51.524;5.080;2023-01-30T16:53:18;7.25;80.52
66343;DHT22;53144;51.524;5.080;2023-01-30T16:56:02;7.28;80.14
66343;DHT22;53144;51.524;5.080;2023-01-30T16:58:32;7.25;80.16
66343;DHT22;53144;51.524;5.080;2023-01-30T17:00:59;7.26;80.20
66343;DHT22;53144;51.524;5.080;2023-01-30T17:03:29;7.18;80.68
66343;DHT22;53144;51.524;5.080;2023-01-30T17:05:56;7.14;80.73
66343;DHT22;53144;51.524;5.080;2023-01-30T17:10:58;7.05;80.88
66343;DHT22;53144;51.524;5.080;2023-01-30T17:13:37;6.95;81.39
66343;DHT22;53144;51.524;5.080;2023-01-30T17:18:53;6.80;82.23
66343;DHT22;53144;51.524;5.080;2023-01-30T17:21:20;6.73;82.58
66343;DHT22;53144;51.524;5.080;2023-01-30T17:23:50;6.80;82.38
66343;DHT22;53144;51.524;5.080;2023-01-30T17:26:17;6.70;82.67
66343;DHT22;53144;51.524;5.080;2023-01-30T17:28:42;6.62;83.12
66343;DHT22;53144;51.524;5.080;2023-01-30T17:31:14;6.53;83.43
66343;DHT22;53144;51.524;5.080;2023-01-30T17:33:40;6.49;83.61
66343;DHT22;53144;51.524;5.080;2023-01-30T17:36:12;6.50;83.60
66343;DHT22;53144;51.524;5.080;2023-01-30T17:38:40;6.43;83.76
66343;DHT22;53144;51.524;5.080;2023-01-30T17:41:11;6.32;84.19
66343;DHT22;53144;51.524;5.080;2023-01-30T17:43:41;6.30;84.31
66343;DHT22;53144;51.524;5.080;2023-01-30T17:46:07;6.23;84.47
66343;DHT22;53144;51.524;5.080;2023-01-30T17:48:33;6.28;84.36
66343;DHT22;53144;51.524;5.080;2023-01-30T17:50:58;6.30;84.16
66343;DHT22;53144;51.524;5.080;2023-01-30T17:53:23;6.26;84.42
66343;DHT22;53144;51.524;5.080;2023-01-30T17:55:49;6.21;84.38
66343;DHT22;53144;51.524;5.080;2023-01-30T17:58:15;6.23;84.46
66343;DHT22;53144;51.524;5.080;2023-01-30T18:00:41;6.32;84.29
66343;DHT22;53144;51.524;5.080;2023-01-30T18:03:06;6.25;84.35
66343;DHT22;53144;51.524;5.080;2023-01-30T18:05:32;6.29;84.32
66343;DHT22;53144;51.524;5.080;2023-01-30T18:07:57;6.34;84.12
66343;DHT22;53144;51.524;5.080;2023-01-30T18:10:23;6.36;84.09
66343;DHT22;53144;51.524;5.080;2023-01-30T18:12:48;6.39;83.99
66343;DHT22;53144;51.524;5.080;2023-01-30T18:15:14;6.37;84.20
66343;DHT22;53144;51.524;5.080;2023-01-30T18:17:47;6.42;83.90
66343;DHT22;53144;51.524;5.080;2023-01-30T18:20:16;6.49;83.70
66343;DHT22;53144;51.524;5.080;2023-01-30T18:22:42;6.52;83.58
66343;DHT22;53144;51.524;5.080;2023-01-30T18:25:08;6.53;83.74
66343;DHT22;53144;51.524;5.080;2023-01-30T18:27:34;6.54;83.51
66343;DHT22;53144;51.524;5.080;2023-01-30T18:29:59;6.57;83.27
66343;DHT22;53144;51.524;5.080;2023-01-30T18:32:24;6.62;83.43
66343;DHT22;53144;51.524;5.080;2023-01-30T18:34:50;6.50;83.51
66343;DHT22;53144;51.524;5.080;2023-01-30T18:37:15;6.53;83.54
66343;DHT22;53144;51.524;5.080;2023-01-30T18:39:41;6.56;83.23
66343;DHT22;53144;51.524;5.080;2023-01-30T18:42:06;6.56;83.34
66343;DHT22;53144;51.524;5.080;2023-01-30T18:44:32;6.52;83.64
66343;DHT22;53144;51.524;5.080;2023-01-30T18:46:58;6.53;83.54
66343;DHT22;53144;51.524;5.080;2023-01-30T18:49:23;6.53;83.30
66343;DHT22;53144;51.524;5.080;2023-01-30T18:51:48;6.46;83.59
66343;DHT22;53144;51.524;5.080;2023-01-30T18:54:14;6.54;83.11
66343;DHT22;53144;51.524;5.080;2023-01-30T18:56:39;6.52;83.28
66343;DHT22;53144;51.524;5.080;2023-01-30T18:59:05;6.52;83.43